Decoded Metar for LTDA (HATAY AIRPORT in TURQUEY) (IATA:) | Meteo·Mobile Aviation Weather
aviador You're here:

LTDA Decoded Metar

HATAY AIRPORT in TURQUEY
Report Time2019-03-20 22:50:00
UTC Time2019-03-20 23:27:39
Flight Rules vfr VFR
Wind090° at 06 kt
W.Decomp.*RWY 04: 4.2 kt HW 4.3 kt RCW
W.Rank090° ranks 27
Current wind is above 090° avg. (4.9)
Visibility9999 m
Phenomena:N/A
Clouds:Few 040 Hf
Expected CloudBase > 800 ft AGL from Temp-Dew spread
CeilingNone
Temp13°C (ISA -1)
Dew Point11°C (88% RH)
AAT11.2°C
QNH1018 hPa
Density Alt102 ft
Elevation267 ft
Report Wrong Elevation
Raw Report
METAR LTDA 202250Z 09006KT 9999 FEW040 13/11 Q1018 NOSIG=

Extra information for LTDA:More info

Metar Taf Metar & Taf Last 4 Metars F.Rules Stats Wind Profile Meteogram Temp Stats Airport Information Weather charts Add Link Nearby VenuesMetar ALERT Operation Metar Decoded Social comments